sensor_id;sensor_type;location;lat;lon;timestamp;temperature;humidity
30069;DHT22;16894;49.456;10.644;2023-04-08T00:00:23;4.10;99.90
30069;DHT22;16894;49.456;10.644;2023-04-08T00:02:49;4.00;99.90
30069;DHT22;16894;49.456;10.644;2023-04-08T00:05:15;4.10;99.90
30069;DHT22;16894;49.456;10.644;2023-04-08T00:07:40;4.00;99.90
30069;DHT22;16894;49.456;10.644;2023-04-08T00:10:07;4.00;99.90
30069;DHT22;16894;49.456;10.644;2023-04-08T00:12:33;4.00;99.90
30069;DHT22;16894;49.456;10.644;2023-04-08T00:14:58;4.10;99.90
30069;DHT22;16894;49.456;10.644;2023-04-08T00:17:24;4.10;99.90
30069;DHT22;16894;49.456;10.644;2023-04-08T00:19:50;4.10;99.90
30069;DHT22;16894;49.456;10.644;2023-04-08T00:22:16;4.10;99.90
30069;DHT22;16894;49.456;10.644;2023-04-08T00:24:42;4.00;99.90
30069;DHT22;16894;49.456;10.644;2023-04-08T00:27:08;4.00;99.90
30069;DHT22;16894;49.456;10.644;2023-04-08T00:29:33;3.90;99.90
30069;DHT22;16894;49.456;10.644;2023-04-08T00:31:59;3.90;99.90
30069;DHT22;16894;49.456;10.644;2023-04-08T00:34:24;3.90;99.90
30069;DHT22;16894;49.456;10.644;2023-04-08T00:36:51;3.90;99.90
30069;DHT22;16894;49.456;10.644;2023-04-08T00:39:17;3.90;99.90
30069;DHT22;16894;49.456;10.644;2023-04-08T00:41:43;3.90;99.90
30069;DHT22;16894;49.456;10.644;2023-04-08T00:44:08;3.90;99.90
30069;DHT22;16894;49.456;10.644;2023-04-08T00:46:36;3.80;99.90
30069;DHT22;16894;49.456;10.644;2023-04-08T00:49:03;3.80;99.90
30069;DHT22;16894;49.456;10.644;2023-04-08T00:51:29;3.70;99.90
30069;DHT22;16894;49.456;10.644;2023-04-08T00:54:01;3.60;99.90
30069;DHT22;16894;49.456;10.644;2023-04-08T00:56:29;3.60;99.90
30069;DHT22;16894;49.456;10.644;2023-04-08T00:58:55;3.60;99.90
30069;DHT22;16894;49.456;10.644;2023-04-08T01:01:42;3.50;99.90
30069;DHT22;16894;49.456;10.644;2023-04-08T01:07:40;3.50;99.90
30069;DHT22;16894;49.456;10.644;2023-04-08T01:10:20;3.40;99.90
30069;DHT22;16894;49.456;10.644;2023-04-08T01:12:53;3.40;99.90
30069;DHT22;16894;49.456;10.644;2023-04-08T01:15:20;3.30;99.90
30069;DHT22;16894;49.456;10.644;2023-04-08T01:17:46;3.30;99.90
30069;DHT22;16894;49.456;10.644;2023-04-08T01:20:14;3.30;99.90
30069;DHT22;16894;49.456;10.644;2023-04-08T01:25:29;3.40;99.90
30069;DHT22;16894;49.456;10.644;2023-04-08T01:27:57;3.40;99.90
30069;DHT22;16894;49.456;10.644;2023-04-08T01:30:25;3.40;99.90
30069;DHT22;16894;49.456;10.644;2023-04-08T01:32:53;3.40;99.90
30069;DHT22;16894;49.456;10.644;2023-04-08T01:35:20;3.30;99.90
30069;DHT22;16894;49.456;10.644;2023-04-08T01:37:49;3.20;99.90
30069;DHT22;16894;49.456;10.644;2023-04-08T01:40:16;3.20;99.90
30069;DHT22;16894;49.456;10.644;2023-04-08T01:42:44;3.20;99.90
30069;DHT22;16894;49.456;10.644;2023-04-08T01:45:11;3.30;99.90
30069;DHT22;16894;49.456;10.644;2023-04-08T01:47:38;3.30;99.90
30069;DHT22;16894;49.456;10.644;2023-04-08T01:50:05;3.40;99.90
30069;DHT22;16894;49.456;10.644;2023-04-08T01:52:34;3.40;99.90
30069;DHT22;16894;49.456;10.644;2023-04-08T01:55:00;3.50;99.90
30069;DHT22;16894;49.456;10.644;2023-04-08T01:57:31;3.40;99.90
30069;DHT22;16894;49.456;10.644;2023-04-08T02:00:01;3.50;99.90
30069;DHT22;16894;49.456;10.644;2023-04-08T02:02:29;3.50;99.90
30069;DHT22;16894;49.456;10.644;2023-04-08T02:04:57;3.60;99.90
30069;DHT22;16894;49.456;10.644;2023-04-08T02:07:22;3.60;99.90
30069;DHT22;16894;49.456;10.644;2023-04-08T02:09:49;3.50;99.90
30069;DHT22;16894;49.456;10.644;2023-04-08T02:12:15;3.60;99.90
30069;DHT22;16894;49.456;10.644;2023-04-08T02:14:41;3.60;99.90
30069;DHT22;16894;49.456;10.644;2023-04-08T02:17:35;3.60;99.90
30069;DHT22;16894;49.456;10.644;2023-04-08T02:20:20;3.50;99.90
30069;DHT22;16894;49.456;10.644;2023-04-08T02:25:28;3.50;99.90
30069;DHT22;16894;49.456;10.644;2023-04-08T02:27:55;3.50;99.90
30069;DHT22;16894;49.456;10.644;2023-04-08T02:30:23;3.50;99.90
30069;DHT22;16894;49.456;10.644;2023-04-08T02:32:51;3.60;99.90
30069;DHT22;16894;49.456;10.644;2023-04-08T02:35:19;3.60;99.90
30069;DHT22;16894;49.456;10.644;2023-04-08T02:37:45;3.60;99.90
30069;DHT22;16894;49.456;10.644;2023-04-08T02:40:32;3.70;99.90
30069;DHT22;16894;49.456;10.644;2023-04-08T02:42:58;3.60;99.90
30069;DHT22;16894;49.456;10.644;2023-04-08T02:45:26;3.50;99.90
30069;DHT22;16894;49.456;10.644;2023-04-08T02:47:52;3.50;99.90
30069;DHT22;16894;49.456;10.644;2023-04-08T02:50:17;3.50;99.90
30069;DHT22;16894;49.456;10.644;2023-04-08T02:52:43;3.50;99.90
30069;DHT22;16894;49.456;10.644;2023-04-08T02:55:09;3.50;99.90
30069;DHT22;16894;49.456;10.644;2023-04-08T02:57:37;3.50;99.90
30069;DHT22;16894;49.456;10.644;2023-04-08T03:00:04;3.60;99.90
30069;DHT22;16894;49.456;10.644;2023-04-08T03:02:30;3.60;99.90
30069;DHT22;16894;49.456;10.644;2023-04-08T03:04:56;3.60;99.90
30069;DHT22;16894;49.456;10.644;2023-04-08T03:07:21;3.60;99.90
30069;DHT22;16894;49.456;10.644;2023-04-08T03:09:47;3.60;99.90
30069;DHT22;16894;49.456;10.644;2023-04-08T03:12:13;3.60;99.90
30069;DHT22;16894;49.456;10.644;2023-04-08T03:14:38;3.60;99.90
30069;DHT22;16894;49.456;10.644;2023-04-08T03:17:04;3.70;99.90
30069;DHT22;16894;49.456;10.644;2023-04-08T03:19:30;3.70;99.90
30069;DHT22;16894;49.456;10.644;2023-04-08T03:21:56;3.70;99.90
30069;DHT22;16894;49.456;10.644;2023-04-08T03:24:21;3.80;99.90
30069;DHT22;16894;49.456;10.644;2023-04-08T03:26:47;3.80;99.90
30069;DHT22;16894;49.456;10.644;2023-04-08T03:29:13;3.80;99.90
30069;DHT22;16894;49.456;10.644;2023-04-08T03:31:38;3.80;99.90
30069;DHT22;16894;49.456;10.644;2023-04-08T03:34:04;3.70;99.90
30069;DHT22;16894;49.456;10.644;2023-04-08T03:36:30;3.70;99.90
30069;DHT22;16894;49.456;10.644;2023-04-08T03:38:56;3.60;99.90
30069;DHT22;16894;49.456;10.644;2023-04-08T03:41:22;3.60;99.90
30069;DHT22;16894;49.456;10.644;2023-04-08T03:43:48;3.60;99.90
30069;DHT22;16894;49.456;10.644;2023-04-08T03:46:13;3.50;99.90
30069;DHT22;16894;49.456;10.644;2023-04-08T03:48:39;3.50;99.90
30069;DHT22;16894;49.456;10.644;2023-04-08T03:51:05;3.40;99.90
30069;DHT22;16894;49.456;10.644;2023-04-08T03:53:31;3.40;99.90
30069;DHT22;16894;49.456;10.644;2023-04-08T03:55:56;3.40;99.90
30069;DHT22;16894;49.456;10.644;2023-04-08T03:58:22;3.40;99.90
30069;DHT22;16894;49.456;10.644;2023-04-08T04:00:48;3.30;99.90
30069;DHT22;16894;49.456;10.644;2023-04-08T04:03:13;3.40;99.90
30069;DHT22;16894;49.456;10.644;2023-04-08T04:05:39;3.40;99.90
30069;DHT22;16894;49.456;10.644;2023-04-08T04:08:05;3.30;99.90
30069;DHT22;16894;49.456;10.644;2023-04-08T04:10:31;3.30;99.90
30069;DHT22;16894;49.456;10.644;2023-04-08T04:12:57;3.30;99.90
30069;DHT22;16894;49.456;10.644;2023-04-08T04:15:22;3.30;99.90
30069;DHT22;16894;49.456;10.644;2023-04-08T04:17:48;3.30;99.90
30069;DHT22;16894;49.456;10.644;2023-04-08T04:20:17;3.30;99.90
30069;DHT22;16894;49.456;10.644;2023-04-08T04:22:43;3.30;99.90
30069;DHT22;16894;49.456;10.644;2023-04-08T04:25:08;3.30;99.90
30069;DHT22;16894;49.456;10.644;2023-04-08T04:27:34;3.30;99.90
30069;DHT22;16894;49.456;10.644;2023-04-08T04:30:01;3.30;99.90
30069;DHT22;16894;49.456;10.644;2023-04-08T04:32:27;3.30;99.90
30069;DHT22;16894;49.456;10.644;2023-04-08T04:34:54;3.20;99.90
30069;DHT22;16894;49.456;10.644;2023-04-08T04:37:19;3.20;99.90
30069;DHT22;16894;49.456;10.644;2023-04-08T04:39:45;3.20;99.90
30069;DHT22;16894;49.456;10.644;2023-04-08T04:42:11;3.20;99.90
30069;DHT22;16894;49.456;10.644;2023-04-08T04:44:36;3.30;99.90
30069;DHT22;16894;49.456;10.644;2023-04-08T04:47:02;3.20;99.90
30069;DHT22;16894;49.456;10.644;2023-04-08T04:49:29;3.20;99.90
30069;DHT22;16894;49.456;10.644;2023-04-08T04:51:55;3.30;99.90
30069;DHT22;16894;49.456;10.644;2023-04-08T04:54:21;3.30;99.90
30069;DHT22;16894;49.456;10.644;2023-04-08T04:56:47;3.20;99.90
30069;DHT22;16894;49.456;10.644;2023-04-08T04:59:12;3.10;99.90
30069;DHT22;16894;49.456;10.644;2023-04-08T05:01:38;3.10;99.90
30069;DHT22;16894;49.456;10.644;2023-04-08T05:04:05;3.10;99.90
30069;DHT22;16894;49.456;10.644;2023-04-08T05:06:32;3.10;99.90
30069;DHT22;16894;49.456;10.644;2023-04-08T05:08:57;3.10;99.90
30069;DHT22;16894;49.456;10.644;2023-04-08T05:11:23;3.00;99.90
30069;DHT22;16894;49.456;10.644;2023-04-08T05:13:49;3.00;99.90
30069;DHT22;16894;49.456;10.644;2023-04-08T05:16:14;3.10;99.90
30069;DHT22;16894;49.456;10.644;2023-04-08T05:18:41;3.00;99.90
30069;DHT22;16894;49.456;10.644;2023-04-08T05:21:07;3.00;99.90
30069;DHT22;16894;49.456;10.644;2023-04-08T05:23:33;3.00;99.90
30069;DHT22;16894;49.456;10.644;2023-04-08T05:25:59;3.10;99.90
30069;DHT22;16894;49.456;10.644;2023-04-08T05:28:25;3.10;99.90
30069;DHT22;16894;49.456;10.644;2023-04-08T05:30:51;3.10;99.90
30069;DHT22;16894;49.456;10.644;2023-04-08T05:33:18;3.20;99.90
30069;DHT22;16894;49.456;10.644;2023-04-08T05:35:44;3.20;99.90
30069;DHT22;16894;49.456;10.644;2023-04-08T05:38:10;3.20;99.90
30069;DHT22;16894;49.456;10.644;2023-04-08T05:40:36;3.20;99.90
30069;DHT22;16894;49.456;10.644;2023-04-08T05:43:02;3.30;99.90
30069;DHT22;16894;49.456;10.644;2023-04-08T05:45:28;3.30;99.90
30069;DHT22;16894;49.456;10.644;2023-04-08T05:47:54;3.30;99.90
30069;DHT22;16894;49.456;10.644;2023-04-08T05:50:19;3.30;99.90
30069;DHT22;16894;49.456;10.644;2023-04-08T05:52:45;3.40;99.90
30069;DHT22;16894;49.456;10.644;2023-04-08T05:55:12;3.40;99.90
30069;DHT22;16894;49.456;10.644;2023-04-08T05:57:39;3.40;99.90
30069;DHT22;16894;49.456;10.644;2023-04-08T06:00:06;3.50;99.90
30069;DHT22;16894;49.456;10.644;2023-04-08T06:02:33;3.50;99.90
30069;DHT22;16894;49.456;10.644;2023-04-08T06:04:59;3.50;99.90
30069;DHT22;16894;49.456;10.644;2023-04-08T06:07:25;3.60;99.90
30069;DHT22;16894;49.456;10.644;2023-04-08T06:09:51;3.60;99.90
30069;DHT22;16894;49.456;10.644;2023-04-08T06:12:16;3.70;99.90
30069;DHT22;16894;49.456;10.644;2023-04-08T06:14:42;3.70;99.90
30069;DHT22;16894;49.456;10.644;2023-04-08T06:17:08;3.80;99.90
30069;DHT22;16894;49.456;10.644;2023-04-08T06:19:34;3.90;99.90
30069;DHT22;16894;49.456;10.644;2023-04-08T06:21:59;3.90;99.90
30069;DHT22;16894;49.456;10.644;2023-04-08T06:24:25;4.00;99.90
30069;DHT22;16894;49.456;10.644;2023-04-08T06:26:52;4.10;99.90
30069;DHT22;16894;49.456;10.644;2023-04-08T06:29:19;4.20;99.90
30069;DHT22;16894;49.456;10.644;2023-04-08T06:31:45;4.30;99.90
30069;DHT22;16894;49.456;10.644;2023-04-08T06:34:10;4.40;99.90
30069;DHT22;16894;49.456;10.644;2023-04-08T06:36:36;4.40;99.90
30069;DHT22;16894;49.456;10.644;2023-04-08T06:39:02;4.40;99.90
30069;DHT22;16894;49.456;10.644;2023-04-08T06:41:29;4.50;99.90
30069;DHT22;16894;49.456;10.644;2023-04-08T06:43:55;4.60;99.90
30069;DHT22;16894;49.456;10.644;2023-04-08T06:46:21;4.70;99.90
30069;DHT22;16894;49.456;10.644;2023-04-08T06:48:46;4.80;99.90
30069;DHT22;16894;49.456;10.644;2023-04-08T06:51:12;4.90;99.90
30069;DHT22;16894;49.456;10.644;2023-04-08T06:53:38;5.00;99.90
30069;DHT22;16894;49.456;10.644;2023-04-08T06:56:04;5.00;99.90
30069;DHT22;16894;49.456;10.644;2023-04-08T06:58:29;5.10;99.90
30069;DHT22;16894;49.456;10.644;2023-04-08T07:00:55;5.20;99.90
30069;DHT22;16894;49.456;10.644;2023-04-08T07:03:22;5.30;99.90
30069;DHT22;16894;49.456;10.644;2023-04-08T07:05:48;5.40;99.90
30069;DHT22;16894;49.456;10.644;2023-04-08T07:08:13;5.50;99.90
30069;DHT22;16894;49.456;10.644;2023-04-08T07:10:39;5.60;99.90
30069;DHT22;16894;49.456;10.644;2023-04-08T07:13:23;5.70;99.90
30069;DHT22;16894;49.456;10.644;2023-04-08T07:15:49;5.70;99.90
30069;DHT22;16894;49.456;10.644;2023-04-08T07:18:14;5.70;99.90
30069;DHT22;16894;49.456;10.644;2023-04-08T07:20:40;5.50;99.90
30069;DHT22;16894;49.456;10.644;2023-04-08T07:23:06;5.50;99.90
30069;DHT22;16894;49.456;10.644;2023-04-08T07:25:32;5.40;99.90
30069;DHT22;16894;49.456;10.644;2023-04-08T07:27:59;5.40;99.90
30069;DHT22;16894;49.456;10.644;2023-04-08T07:30:25;5.40;99.90
30069;DHT22;16894;49.456;10.644;2023-04-08T07:32:51;5.40;99.90
30069;DHT22;16894;49.456;10.644;2023-04-08T07:35:20;5.50;99.90
30069;DHT22;16894;49.456;10.644;2023-04-08T07:37:49;5.50;99.90
30069;DHT22;16894;49.456;10.644;2023-04-08T07:40:18;5.50;99.90
30069;DHT22;16894;49.456;10.644;2023-04-08T07:42:44;5.60;99.90
30069;DHT22;16894;49.456;10.644;2023-04-08T07:45:10;5.50;99.90
30069;DHT22;16894;49.456;10.644;2023-04-08T07:47:36;5.50;99.90
30069;DHT22;16894;49.456;10.644;2023-04-08T07:50:02;5.50;99.90
30069;DHT22;16894;49.456;10.644;2023-04-08T07:52:31;5.40;99.90
30069;DHT22;16894;49.456;10.644;2023-04-08T07:54:57;5.50;99.90
30069;DHT22;16894;49.456;10.644;2023-04-08T07:57:23;5.60;99.90
30069;DHT22;16894;49.456;10.644;2023-04-08T07:59:48;5.70;99.90
30069;DHT22;16894;49.456;10.644;2023-04-08T08:02:14;5.70;99.90
30069;DHT22;16894;49.456;10.644;2023-04-08T08:04:40;5.70;99.90
30069;DHT22;16894;49.456;10.644;2023-04-08T08:07:05;5.70;99.90
30069;DHT22;16894;49.456;10.644;2023-04-08T08:09:31;5.60;99.90
30069;DHT22;16894;49.456;10.644;2023-04-08T08:11:57;5.70;99.90
30069;DHT22;16894;49.456;10.644;2023-04-08T08:14:22;5.60;99.90
30069;DHT22;16894;49.456;10.644;2023-04-08T08:16:49;5.50;99.90
30069;DHT22;16894;49.456;10.644;2023-04-08T08:19:15;5.50;99.90
30069;DHT22;16894;49.456;10.644;2023-04-08T08:21:40;5.50;99.90
30069;DHT22;16894;49.456;10.644;2023-04-08T08:24:06;5.60;99.90
30069;DHT22;16894;49.456;10.644;2023-04-08T08:26:35;5.60;99.90
30069;DHT22;16894;49.456;10.644;2023-04-08T08:29:04;5.70;99.90
30069;DHT22;16894;49.456;10.644;2023-04-08T08:31:30;5.70;99.90
30069;DHT22;16894;49.456;10.644;2023-04-08T08:33:55;5.90;99.90
30069;DHT22;16894;49.456;10.644;2023-04-08T08:36:21;5.90;99.90
30069;DHT22;16894;49.456;10.644;2023-04-08T08:38:47;5.90;99.90
30069;DHT22;16894;49.456;10.644;2023-04-08T08:41:12;5.90;99.90
30069;DHT22;16894;49.456;10.644;2023-04-08T08:43:38;6.00;99.90
30069;DHT22;16894;49.456;10.644;2023-04-08T08:46:09;6.10;99.90
30069;DHT22;16894;49.456;10.644;2023-04-08T08:48:35;6.20;99.90
30069;DHT22;16894;49.456;10.644;2023-04-08T08:51:08;6.30;99.90
30069;DHT22;16894;49.456;10.644;2023-04-08T08:53:34;6.40;99.90
30069;DHT22;16894;49.456;10.644;2023-04-08T08:55:59;6.40;99.90
30069;DHT22;16894;49.456;10.644;2023-04-08T08:58:28;6.30;99.90
30069;DHT22;16894;49.456;10.644;2023-04-08T09:00:54;6.30;99.90
30069;DHT22;16894;49.456;10.644;2023-04-08T09:03:20;6.00;99.90
30069;DHT22;16894;49.456;10.644;2023-04-08T09:06:07;6.00;99.90
30069;DHT22;16894;49.456;10.644;2023-04-08T09:08:34;6.10;99.90
30069;DHT22;16894;49.456;10.644;2023-04-08T09:11:19;6.20;99.90
30069;DHT22;16894;49.456;10.644;2023-04-08T09:13:48;6.40;99.90
30069;DHT22;16894;49.456;10.644;2023-04-08T09:16:15;6.60;99.90
30069;DHT22;16894;49.456;10.644;2023-04-08T09:18:43;6.70;99.90
30069;DHT22;16894;49.456;10.644;2023-04-08T09:21:11;6.60;99.90
30069;DHT22;16894;49.456;10.644;2023-04-08T09:23:42;6.60;99.90
30069;DHT22;16894;49.456;10.644;2023-04-08T09:26:09;6.70;99.90
30069;DHT22;16894;49.456;10.644;2023-04-08T09:28:35;6.80;99.90
30069;DHT22;16894;49.456;10.644;2023-04-08T09:31:20;7.00;99.90
30069;DHT22;16894;49.456;10.644;2023-04-08T09:33:55;7.00;99.90
30069;DHT22;16894;49.456;10.644;2023-04-08T09:36:21;7.10;99.90
30069;DHT22;16894;49.456;10.644;2023-04-08T09:38:47;7.10;99.90
30069;DHT22;16894;49.456;10.644;2023-04-08T09:41:15;7.20;99.90
30069;DHT22;16894;49.456;10.644;2023-04-08T09:43:43;7.30;99.90
30069;DHT22;16894;49.456;10.644;2023-04-08T09:46:14;7.30;99.90
30069;DHT22;16894;49.456;10.644;2023-04-08T09:48:47;7.30;99.90
30069;DHT22;16894;49.456;10.644;2023-04-08T09:51:15;7.20;99.90
30069;DHT22;16894;49.456;10.644;2023-04-08T09:53:46;6.90;99.90
30069;DHT22;16894;49.456;10.644;2023-04-08T09:56:13;6.80;99.90
30069;DHT22;16894;49.456;10.644;2023-04-08T09:58:47;6.70;99.90
30069;DHT22;16894;49.456;10.644;2023-04-08T10:01:15;6.80;99.90
30069;DHT22;16894;49.456;10.644;2023-04-08T10:03:49;7.00;99.90
30069;DHT22;16894;49.456;10.644;2023-04-08T10:06:17;7.00;99.90
30069;DHT22;16894;49.456;10.644;2023-04-08T10:08:43;6.90;99.90
30069;DHT22;16894;49.456;10.644;2023-04-08T10:11:09;6.90;99.90
30069;DHT22;16894;49.456;10.644;2023-04-08T10:13:35;6.70;99.90
30069;DHT22;16894;49.456;10.644;2023-04-08T10:16:21;6.70;99.90
30069;DHT22;16894;49.456;10.644;2023-04-08T10:18:47;6.70;99.90
30069;DHT22;16894;49.456;10.644;2023-04-08T10:21:37;6.60;99.90
30069;DHT22;16894;49.456;10.644;2023-04-08T10:24:07;6.50;99.90
30069;DHT22;16894;49.456;10.644;2023-04-08T10:26:34;6.50;99.90
30069;DHT22;16894;49.456;10.644;2023-04-08T10:31:51;6.50;99.90
30069;DHT22;16894;49.456;10.644;2023-04-08T10:34:20;6.60;99.90
30069;DHT22;16894;49.456;10.644;2023-04-08T10:36:47;6.60;99.90
30069;DHT22;16894;49.456;10.644;2023-04-08T10:39:14;6.70;99.90
30069;DHT22;16894;49.456;10.644;2023-04-08T10:41:46;6.60;99.90
30069;DHT22;16894;49.456;10.644;2023-04-08T10:46:47;6.50;99.90
30069;DHT22;16894;49.456;10.644;2023-04-08T10:49:14;6.30;99.90
30069;DHT22;16894;49.456;10.644;2023-04-08T10:51:40;6.50;99.90
30069;DHT22;16894;49.456;10.644;2023-04-08T10:54:11;6.50;99.90
30069;DHT22;16894;49.456;10.644;2023-04-08T10:56:50;6.70;99.90
30069;DHT22;16894;49.456;10.644;2023-04-08T10:59:30;6.70;99.90
30069;DHT22;16894;49.456;10.644;2023-04-08T11:01:57;6.80;99.90
30069;DHT22;16894;49.456;10.644;2023-04-08T11:04:24;6.90;99.90
30069;DHT22;16894;49.456;10.644;2023-04-08T11:06:50;7.10;99.90
30069;DHT22;16894;49.456;10.644;2023-04-08T11:09:16;7.30;99.90
30069;DHT22;16894;49.456;10.644;2023-04-08T11:11:42;7.50;99.90
30069;DHT22;16894;49.456;10.644;2023-04-08T11:14:08;7.70;99.90
30069;DHT22;16894;49.456;10.644;2023-04-08T11:16:35;7.70;99.90
30069;DHT22;16894;49.456;10.644;2023-04-08T11:19:02;7.70;99.90
30069;DHT22;16894;49.456;10.644;2023-04-08T11:21:30;7.70;99.90
30069;DHT22;16894;49.456;10.644;2023-04-08T11:23:57;7.80;99.90
30069;DHT22;16894;49.456;10.644;2023-04-08T11:26:24;7.80;99.90
30069;DHT22;16894;49.456;10.644;2023-04-08T11:28:50;8.00;99.90
30069;DHT22;16894;49.456;10.644;2023-04-08T11:31:19;8.00;99.90
30069;DHT22;16894;49.456;10.644;2023-04-08T11:33:46;8.30;99.90
30069;DHT22;16894;49.456;10.644;2023-04-08T11:36:18;8.20;99.90
30069;DHT22;16894;49.456;10.644;2023-04-08T11:38:46;8.20;99.90
30069;DHT22;16894;49.456;10.644;2023-04-08T11:41:12;8.20;99.90
30069;DHT22;16894;49.456;10.644;2023-04-08T11:43:38;8.00;99.90
30069;DHT22;16894;49.456;10.644;2023-04-08T11:46:09;8.10;99.90
30069;DHT22;16894;49.456;10.644;2023-04-08T11:48:36;8.30;99.90
30069;DHT22;16894;49.456;10.644;2023-04-08T11:51:07;8.40;99.90
30069;DHT22;16894;49.456;10.644;2023-04-08T11:53:34;8.50;99.90
30069;DHT22;16894;49.456;10.644;2023-04-08T11:56:19;8.50;99.90
30069;DHT22;16894;49.456;10.644;2023-04-08T11:58:47;8.60;99.90
30069;DHT22;16894;49.456;10.644;2023-04-08T12:01:13;8.80;99.90
30069;DHT22;16894;49.456;10.644;2023-04-08T12:03:52;8.80;99.90
30069;DHT22;16894;49.456;10.644;2023-04-08T12:06:17;9.00;99.90
30069;DHT22;16894;49.456;10.644;2023-04-08T12:08:43;9.20;99.90
30069;DHT22;16894;49.456;10.644;2023-04-08T12:11:09;9.40;99.90
30069;DHT22;16894;49.456;10.644;2023-04-08T12:13:35;9.50;99.90
30069;DHT22;16894;49.456;10.644;2023-04-08T12:16:01;9.00;99.90
30069;DHT22;16894;49.456;10.644;2023-04-08T12:18:27;9.00;99.90
30069;DHT22;16894;49.456;10.644;2023-04-08T12:20:53;8.70;99.90
30069;DHT22;16894;49.456;10.644;2023-04-08T12:23:19;8.80;99.90
30069;DHT22;16894;49.456;10.644;2023-04-08T12:25:44;8.90;99.90
30069;DHT22;16894;49.456;10.644;2023-04-08T12:28:10;8.80;99.90
30069;DHT22;16894;49.456;10.644;2023-04-08T12:30:36;8.80;99.90
30069;DHT22;16894;49.456;10.644;2023-04-08T12:33:02;8.60;99.90
30069;DHT22;16894;49.456;10.644;2023-04-08T12:35:28;8.60;99.90
30069;DHT22;16894;49.456;10.644;2023-04-08T12:37:53;8.60;99.90
30069;DHT22;16894;49.456;10.644;2023-04-08T12:40:19;8.80;99.90
30069;DHT22;16894;49.456;10.644;2023-04-08T12:42:45;8.70;99.90
30069;DHT22;16894;49.456;10.644;2023-04-08T12:45:10;8.60;99.90
30069;DHT22;16894;49.456;10.644;2023-04-08T12:47:36;8.50;99.90
30069;DHT22;16894;49.456;10.644;2023-04-08T12:50:02;8.50;99.90
30069;DHT22;16894;49.456;10.644;2023-04-08T12:52:28;8.60;99.90
30069;DHT22;16894;49.456;10.644;2023-04-08T12:54:53;8.70;99.90
30069;DHT22;16894;49.456;10.644;2023-04-08T12:57:19;8.80;99.90
30069;DHT22;16894;49.456;10.644;2023-04-08T12:59:45;8.90;99.90
30069;DHT22;16894;49.456;10.644;2023-04-08T13:02:14;9.00;99.90
30069;DHT22;16894;49.456;10.644;2023-04-08T13:04:43;9.00;99.90
30069;DHT22;16894;49.456;10.644;2023-04-08T13:07:09;9.30;99.90
30069;DHT22;16894;49.456;10.644;2023-04-08T13:09:35;9.50;99.90
30069;DHT22;16894;49.456;10.644;2023-04-08T13:12:00;9.70;99.90
30069;DHT22;16894;49.456;10.644;2023-04-08T13:14:26;10.00;99.90
30069;DHT22;16894;49.456;10.644;2023-04-08T13:16:53;10.20;99.90
30069;DHT22;16894;49.456;10.644;2023-04-08T13:19:18;10.20;99.90
30069;DHT22;16894;49.456;10.644;2023-04-08T13:21:44;10.10;99.90
30069;DHT22;16894;49.456;10.644;2023-04-08T13:24:10;10.00;99.90
30069;DHT22;16894;49.456;10.644;2023-04-08T13:26:35;10.10;99.90
30069;DHT22;16894;49.456;10.644;2023-04-08T13:29:01;10.10;99.90
30069;DHT22;16894;49.456;10.644;2023-04-08T13:31:27;9.90;99.90
30069;DHT22;16894;49.456;10.644;2023-04-08T13:33:52;9.50;99.90
30069;DHT22;16894;49.456;10.644;2023-04-08T13:36:18;9.30;99.90
30069;DHT22;16894;49.456;10.644;2023-04-08T13:38:43;9.30;99.90
30069;DHT22;16894;49.456;10.644;2023-04-08T13:41:10;9.10;99.90
30069;DHT22;16894;49.456;10.644;2023-04-08T13:43:36;8.90;99.90
30069;DHT22;16894;49.456;10.644;2023-04-08T13:46:01;8.90;99.90
30069;DHT22;16894;49.456;10.644;2023-04-08T13:48:27;8.80;99.90
30069;DHT22;16894;49.456;10.644;2023-04-08T13:50:53;8.80;99.90
30069;DHT22;16894;49.456;10.644;2023-04-08T13:53:19;8.80;99.90
30069;DHT22;16894;49.456;10.644;2023-04-08T13:55:44;8.70;99.90
30069;DHT22;16894;49.456;10.644;2023-04-08T13:58:10;8.50;99.90
30069;DHT22;16894;49.456;10.644;2023-04-08T14:00:36;8.50;99.90
30069;DHT22;16894;49.456;10.644;2023-04-08T14:03:02;8.40;99.90
30069;DHT22;16894;49.456;10.644;2023-04-08T14:05:28;8.30;99.90
30069;DHT22;16894;49.456;10.644;2023-04-08T14:07:53;8.20;99.90
30069;DHT22;16894;49.456;10.644;2023-04-08T14:10:19;8.20;99.90
30069;DHT22;16894;49.456;10.644;2023-04-08T14:12:45;8.20;99.90
30069;DHT22;16894;49.456;10.644;2023-04-08T14:15:20;8.20;99.90
30069;DHT22;16894;49.456;10.644;2023-04-08T14:17:46;8.20;99.90
30069;DHT22;16894;49.456;10.644;2023-04-08T14:20:12;8.20;99.90
30069;DHT22;16894;49.456;10.644;2023-04-08T14:22:38;8.20;99.90
30069;DHT22;16894;49.456;10.644;2023-04-08T14:25:04;8.20;99.90
30069;DHT22;16894;49.456;10.644;2023-04-08T14:27:30;8.20;99.90
30069;DHT22;16894;49.456;10.644;2023-04-08T14:29:56;8.30;99.90
30069;DHT22;16894;49.456;10.644;2023-04-08T14:32:22;8.40;99.90
30069;DHT22;16894;49.456;10.644;2023-04-08T14:34:48;8.40;99.90
30069;DHT22;16894;49.456;10.644;2023-04-08T14:37:13;8.50;99.90
30069;DHT22;16894;49.456;10.644;2023-04-08T14:39:39;8.70;99.90
30069;DHT22;16894;49.456;10.644;2023-04-08T14:42:05;8.80;99.90
30069;DHT22;16894;49.456;10.644;2023-04-08T14:44:31;9.00;99.90
30069;DHT22;16894;49.456;10.644;2023-04-08T14:46:56;9.20;99.90
30069;DHT22;16894;49.456;10.644;2023-04-08T14:49:22;10.00;99.90
30069;DHT22;16894;49.456;10.644;2023-04-08T14:51:48;11.40;99.90
30069;DHT22;16894;49.456;10.644;2023-04-08T14:54:13;12.10;99.90
30069;DHT22;16894;49.456;10.644;2023-04-08T14:56:41;12.50;99.90
30069;DHT22;16894;49.456;10.644;2023-04-08T14:59:06;12.60;99.90
30069;DHT22;16894;49.456;10.644;2023-04-08T15:01:32;11.90;99.90
30069;DHT22;16894;49.456;10.644;2023-04-08T15:03:58;11.50;99.90
30069;DHT22;16894;49.456;10.644;2023-04-08T15:06:23;11.50;99.90
30069;DHT22;16894;49.456;10.644;2023-04-08T15:08:50;11.30;99.90
30069;DHT22;16894;49.456;10.644;2023-04-08T15:11:16;11.00;99.90
30069;DHT22;16894;49.456;10.644;2023-04-08T15:13:45;10.80;99.90
30069;DHT22;16894;49.456;10.644;2023-04-08T15:16:11;10.70;99.90
30069;DHT22;16894;49.456;10.644;2023-04-08T15:18:36;10.80;99.90
30069;DHT22;16894;49.456;10.644;2023-04-08T15:21:02;10.80;99.90
30069;DHT22;16894;49.456;10.644;2023-04-08T15:23:28;10.80;99.90
30069;DHT22;16894;49.456;10.644;2023-04-08T15:25:55;11.10;99.90
30069;DHT22;16894;49.456;10.644;2023-04-08T15:28:21;11.30;99.90
30069;DHT22;16894;49.456;10.644;2023-04-08T15:30:48;11.50;99.90
30069;DHT22;16894;49.456;10.644;2023-04-08T15:33:14;11.50;99.90
30069;DHT22;16894;49.456;10.644;2023-04-08T15:35:44;11.60;99.90
30069;DHT22;16894;49.456;10.644;2023-04-08T15:38:10;11.30;99.90
30069;DHT22;16894;49.456;10.644;2023-04-08T15:40:36;11.00;99.90
30069;DHT22;16894;49.456;10.644;2023-04-08T15:43:02;10.90;99.90